createdAt,value
2022-08-07T00:02:37.253Z,18.90
2022-08-07T00:05:01.589Z,18.87
2022-08-07T00:07:40.610Z,18.85
2022-08-07T00:10:26.311Z,18.83
2022-08-07T00:12:59.900Z,18.79
2022-08-07T00:15:35.893Z,18.74
2022-08-07T00:18:06.572Z,18.71
2022-08-07T00:20:35.513Z,18.69
2022-08-07T00:23:07.990Z,18.68
2022-08-07T00:25:37.545Z,18.66
2022-08-07T00:28:10.672Z,18.63
2022-08-07T00:30:38.753Z,18.61
2022-08-07T00:33:08.893Z,18.59
2022-08-07T00:35:37.673Z,18.58
2022-08-07T00:38:05.914Z,18.58
2022-08-07T00:40:39.171Z,18.55
2022-08-07T00:43:09.673Z,18.51
2022-08-07T00:45:40.429Z,18.47
2022-08-07T00:48:11.013Z,18.43
2022-08-07T00:50:50.848Z,18.42
2022-08-07T00:53:20.348Z,18.39
2022-08-07T00:56:03.206Z,18.37
2022-08-07T00:58:32.640Z,18.32
2022-08-07T01:01:00.914Z,18.28
2022-08-07T01:03:55.485Z,18.25
2022-08-07T01:06:18.244Z,18.21
2022-08-07T01:08:53.576Z,18.16
2022-08-07T01:12:04.640Z,18.12
2022-08-07T01:14:11.403Z,18.09
2022-08-07T01:16:43.142Z,18.07
2022-08-07T01:19:18.142Z,18.02
2022-08-07T01:21:48.390Z,17.97
2022-08-07T01:24:18.755Z,17.95
2022-08-07T01:26:52.022Z,17.93
2022-08-07T01:29:27.700Z,17.89
2022-08-07T01:31:59.555Z,17.86
2022-08-07T01:34:33.081Z,17.80
2022-08-07T01:37:09.712Z,17.76
2022-08-07T01:39:46.019Z,17.73
2022-08-07T01:42:56.974Z,17.69
2022-08-07T01:45:36.193Z,17.63
2022-08-07T01:48:18.926Z,17.60
2022-08-07T01:51:24.509Z,17.56
2022-08-07T01:54:11.903Z,17.53
2022-08-07T01:56:49.714Z,17.49
2022-08-07T01:59:24.621Z,17.45
2022-08-07T02:02:04.597Z,17.42
2022-08-07T02:04:52.633Z,17.39
2022-08-07T02:07:36.086Z,17.36
2022-08-07T02:10:18.856Z,17.31
2022-08-07T02:12:50.239Z,17.27
2022-08-07T02:15:27.923Z,17.25
2022-08-07T02:17:56.828Z,17.23
2022-08-07T02:20:24.846Z,17.23
2022-08-07T02:23:00.079Z,17.21
2022-08-07T02:25:47.239Z,17.20
2022-08-07T02:28:24.779Z,17.19
2022-08-07T02:30:57.825Z,17.18
2022-08-07T02:33:42.053Z,17.17
2022-08-07T02:36:29.206Z,17.16
2022-08-07T02:39:16.277Z,17.14
2022-08-07T02:41:50.545Z,17.10
2022-08-07T02:44:26.920Z,17.08
2022-08-07T02:46:57.354Z,17.06
2022-08-07T02:49:28.915Z,17.05
2022-08-07T02:52:16.305Z,17.02
2022-08-07T02:54:50.911Z,16.98
2022-08-07T02:57:24.084Z,16.95
2022-08-07T03:00:04.695Z,16.92
2022-08-07T03:02:35.741Z,16.90
2022-08-07T03:05:08.635Z,16.88
2022-08-07T03:08:04.986Z,16.86
2022-08-07T03:10:25.664Z,16.86
2022-08-07T03:12:54.036Z,16.84
2022-08-07T03:15:30.137Z,16.83
2022-08-07T03:18:20.011Z,16.82
2022-08-07T03:20:52.514Z,16.81
2022-08-07T03:23:21.985Z,16.80
2022-08-07T03:26:03.500Z,16.77
2022-08-07T03:28:37.582Z,16.72
2022-08-07T03:31:19.258Z,16.70
2022-08-07T03:33:59.537Z,16.69
2022-08-07T03:36:30.440Z,16.70
2022-08-07T03:39:05.602Z,16.71
2022-08-07T03:41:42.459Z,16.72
2022-08-07T03:44:16.541Z,16.72
2022-08-07T03:47:11.395Z,16.73
2022-08-07T03:49:39.266Z,16.75
2022-08-07T03:52:22.362Z,16.77
2022-08-07T03:54:54.171Z,16.77
2022-08-07T03:58:33.100Z,16.77
2022-08-07T04:00:14.971Z,16.81
2022-08-07T04:02:49.346Z,16.85
2022-08-07T04:05:40.666Z,16.89
2022-08-07T04:08:18.617Z,16.95
2022-08-07T04:10:54.795Z,17.02
2022-08-07T04:14:09.487Z,17.11
2022-08-07T04:16:30.353Z,17.20
2022-08-07T04:19:12.733Z,17.30
2022-08-07T04:21:59.389Z,17.41
2022-08-07T04:24:39.145Z,17.53
2022-08-07T04:27:20.713Z,17.64
2022-08-07T04:30:02.054Z,17.77
2022-08-07T04:32:44.779Z,17.92
2022-08-07T04:35:16.609Z,18.07
2022-08-07T04:38:03.332Z,18.21
2022-08-07T04:40:33.756Z,18.38
2022-08-07T04:43:10.751Z,18.52
2022-08-07T04:45:57.258Z,18.68
2022-08-07T04:48:36.046Z,18.86
2022-08-07T04:51:15.026Z,19.03
2022-08-07T04:54:05.105Z,19.21
2022-08-07T04:58:10.821Z,19.42
2022-08-07T05:00:10.859Z,19.71
2022-08-07T05:02:30.891Z,20.03
2022-08-07T05:05:01.960Z,20.33
2022-08-07T05:07:46.659Z,20.63
2022-08-07T05:10:23.760Z,20.95
2022-08-07T05:13:09.795Z,21.43
2022-08-07T05:15:49.601Z,22.51
2022-08-07T05:18:40.223Z,24.06
2022-08-07T05:21:10.088Z,25.81
2022-08-07T05:23:40.668Z,27.42
2022-08-07T05:26:18.795Z,28.93
2022-08-07T05:28:55.683Z,30.48
2022-08-07T05:31:34.757Z,31.88
2022-08-07T05:34:10.933Z,33.07
2022-08-07T05:36:43.046Z,34.23
2022-08-07T05:40:06.394Z,35.33
2022-08-07T05:42:12.355Z,36.40
2022-08-07T05:44:52.884Z,37.43
2022-08-07T05:47:38.608Z,38.43
2022-08-07T05:50:19.946Z,39.40
2022-08-07T05:52:48.693Z,40.20
2022-08-07T05:55:16.763Z,40.73
2022-08-07T05:57:46.927Z,40.96
2022-08-07T06:00:17.788Z,41.52
2022-08-07T06:02:53.860Z,42.19
2022-08-07T06:05:25.850Z,42.85
2022-08-07T06:08:13.648Z,43.45
2022-08-07T06:10:51.153Z,43.63
2022-08-07T06:13:20.927Z,43.75
2022-08-07T06:16:10.111Z,43.85
2022-08-07T06:18:43.165Z,43.70
2022-08-07T06:22:15.330Z,43.20
2022-08-07T06:24:37.969Z,42.03
2022-08-07T06:26:56.372Z,40.87
2022-08-07T06:29:27.937Z,39.76
2022-08-07T06:31:57.776Z,38.67
2022-08-07T06:34:30.456Z,37.81
2022-08-07T06:36:59.741Z,37.16
2022-08-07T06:40:17.476Z,36.54
2022-08-07T06:42:33.086Z,35.98
2022-08-07T06:45:18.148Z,35.21
2022-08-07T06:47:58.493Z,34.57
2022-08-07T06:50:30.495Z,34.06
2022-08-07T06:53:00.219Z,33.52
2022-08-07T06:55:47.971Z,33.10
2022-08-07T06:58:27.408Z,32.68
2022-08-07T07:01:00.891Z,32.43
2022-08-07T07:03:47.470Z,32.26
2022-08-07T07:06:23.857Z,32.19
2022-08-07T07:08:57.041Z,32.22
2022-08-07T07:12:08.441Z,32.26
2022-08-07T07:14:16.692Z,32.30
2022-08-07T07:16:50.815Z,32.36
2022-08-07T07:19:55.463Z,32.46
2022-08-07T07:22:36.300Z,32.56
2022-08-07T07:26:30.392Z,32.67
2022-08-07T07:28:03.168Z,32.78
2022-08-07T07:30:38.359Z,32.82
2022-08-07T07:33:11.852Z,32.82
2022-08-07T07:35:54.513Z,32.81
2022-08-07T07:38:30.973Z,32.80
2022-08-07T07:41:03.126Z,32.85
2022-08-07T07:43:47.836Z,32.87
2022-08-07T07:46:36.560Z,32.87
2022-08-07T07:50:34.297Z,32.86
2022-08-07T07:52:01.349Z,32.89
2022-08-07T07:54:33.123Z,32.91
2022-08-07T07:57:05.484Z,32.98
2022-08-07T07:59:52.080Z,33.13
2022-08-07T08:02:35.453Z,33.30
2022-08-07T08:05:05.514Z,33.47
2022-08-07T08:08:00.077Z,33.58
2022-08-07T08:10:37.954Z,33.66
2022-08-07T08:13:10.660Z,33.72
2022-08-07T08:15:58.695Z,33.76
2022-08-07T08:18:28.266Z,33.78
2022-08-07T08:20:58.989Z,33.85
2022-08-07T08:23:47.146Z,33.89
2022-08-07T08:26:34.464Z,33.94
2022-08-07T08:29:04.405Z,34.00
2022-08-07T08:32:17.540Z,34.07
2022-08-07T08:34:33.190Z,34.04
2022-08-07T08:37:03.209Z,33.98
2022-08-07T08:39:39.272Z,33.98
2022-08-07T08:42:40.460Z,33.86
2022-08-07T08:45:41.934Z,33.77
2022-08-07T08:48:44.352Z,33.84
2022-08-07T08:51:14.674Z,33.94
2022-08-07T08:54:17.309Z,34.00
2022-08-07T08:56:49.968Z,34.08
2022-08-07T08:59:41.746Z,34.17
2022-08-07T09:02:35.050Z,34.26
2022-08-07T09:05:17.966Z,34.23
2022-08-07T09:07:58.169Z,34.03
2022-08-07T09:10:35.094Z,33.95
2022-08-07T09:13:17.961Z,33.96
2022-08-07T09:16:21.701Z,34.01
2022-08-07T09:18:58.439Z,34.14
2022-08-07T09:22:09.798Z,34.19
2022-08-07T09:25:00.885Z,34.07
2022-08-07T09:27:59.544Z,33.90
2022-08-07T09:30:33.438Z,33.75
2022-08-07T09:33:16.452Z,33.64
2022-08-07T09:36:02.989Z,33.53
2022-08-07T09:38:57.229Z,33.39
2022-08-07T09:41:59.146Z,33.17
2022-08-07T09:44:46.559Z,33.06
2022-08-07T09:47:49.843Z,33.10
2022-08-07T09:50:18.460Z,33.07
2022-08-07T09:52:51.830Z,33.06
2022-08-07T09:56:03.274Z,33.01
2022-08-07T09:58:42.414Z,32.91
2022-08-07T10:01:52.213Z,32.81
2022-08-07T10:04:32.753Z,32.61
2022-08-07T10:07:04.179Z,32.48
2022-08-07T10:09:42.591Z,32.46
2022-08-07T10:12:52.629Z,32.58
2022-08-07T10:15:30.298Z,32.78
2022-08-07T10:18:18.040Z,32.96
2022-08-07T10:20:50.501Z,33.13
2022-08-07T10:24:06.443Z,33.17
2022-08-07T10:26:35.550Z,33.24
2022-08-07T10:29:16.968Z,33.35
2022-08-07T10:32:04.488Z,33.49
2022-08-07T10:34:32.579Z,33.74
2022-08-07T10:37:12.858Z,33.97
2022-08-07T10:40:02.613Z,34.16
2022-08-07T10:42:37.041Z,34.33
2022-08-07T10:45:45.056Z,34.45
2022-08-07T10:48:34.746Z,34.50
2022-08-07T10:51:16.397Z,34.56
2022-08-07T10:54:00.197Z,34.63
2022-08-07T10:56:32.998Z,34.67
2022-08-07T10:59:21.405Z,34.66
2022-08-07T11:02:04.858Z,34.61
2022-08-07T11:04:48.828Z,34.60
2022-08-07T11:07:56.544Z,34.66
2022-08-07T11:10:12.442Z,34.78
2022-08-07T11:12:45.513Z,34.92
2022-08-07T11:15:31.502Z,34.99
2022-08-07T11:18:03.432Z,34.99
2022-08-07T11:20:38.374Z,34.97
2022-08-07T11:23:26.377Z,35.00
2022-08-07T11:26:06.513Z,35.07
2022-08-07T11:28:38.625Z,35.12
2022-08-07T11:31:24.821Z,35.12
2022-08-07T11:34:03.213Z,35.12
2022-08-07T11:36:39.525Z,35.19
2022-08-07T11:39:23.313Z,35.26
2022-08-07T11:42:03.194Z,35.29
2022-08-07T11:44:37.716Z,35.28
2022-08-07T11:47:15.022Z,35.25
2022-08-07T11:50:31.196Z,35.25
2022-08-07T11:52:52.099Z,35.25
2022-08-07T11:56:09.253Z,35.21
2022-08-07T11:58:33.148Z,35.19
2022-08-07T12:01:05.048Z,35.24
2022-08-07T12:03:42.019Z,35.30
2022-08-07T12:06:39.697Z,35.33
2022-08-07T12:09:03.532Z,35.40
2022-08-07T12:12:09.277Z,35.44
2022-08-07T12:14:55.384Z,35.41
2022-08-07T12:17:33.459Z,35.42
2022-08-07T12:20:10.323Z,35.48
2022-08-07T12:22:58.673Z,35.56
2022-08-07T12:26:03.022Z,35.64
2022-08-07T12:28:57.483Z,35.61
2022-08-07T12:31:52.518Z,35.65
2022-08-07T12:34:19.320Z,35.61
2022-08-07T12:36:50.084Z,35.40
2022-08-07T12:39:42.729Z,35.18
2022-08-07T12:42:13.092Z,35.12
2022-08-07T12:44:45.219Z,35.06
2022-08-07T12:47:27.133Z,35.02
2022-08-07T12:50:34.321Z,35.04
2022-08-07T12:53:05.313Z,35.05
2022-08-07T12:56:02.062Z,35.11
2022-08-07T12:58:35.559Z,35.20
2022-08-07T13:01:08.038Z,35.33
2022-08-07T13:03:59.054Z,35.43
2022-08-07T13:06:54.373Z,35.50
2022-08-07T13:10:19.312Z,35.53
2022-08-07T13:12:33.908Z,35.43
2022-08-07T13:15:07.596Z,35.24
2022-08-07T13:17:46.723Z,35.17
2022-08-07T13:20:27.828Z,35.15
2022-08-07T13:23:09.829Z,35.06
2022-08-07T13:26:00.940Z,34.93
2022-08-07T13:28:34.132Z,34.89
2022-08-07T13:31:55.068Z,34.91
2022-08-07T13:34:36.075Z,34.90
2022-08-07T13:37:24.532Z,34.82
2022-08-07T13:40:35.882Z,34.71
2022-08-07T13:42:51.521Z,34.65
2022-08-07T13:46:11.339Z,34.62
2022-08-07T13:48:27.570Z,34.64
2022-08-07T13:51:01.840Z,34.70
2022-08-07T13:54:00.919Z,34.77
2022-08-07T13:56:35.831Z,34.85
2022-08-07T13:59:15.754Z,34.94
2022-08-07T14:01:59.405Z,34.98
2022-08-07T14:04:35.796Z,34.96
2022-08-07T14:07:09.388Z,34.87
2022-08-07T14:10:17.658Z,34.74
2022-08-07T14:12:41.425Z,34.60
2022-08-07T14:15:18.716Z,34.44
2022-08-07T14:18:15.711Z,34.23
2022-08-07T14:20:41.939Z,34.06
2022-08-07T14:23:18.035Z,33.90
2022-08-07T14:26:08.479Z,33.73
2022-08-07T14:28:57.387Z,33.56
2022-08-07T14:31:26.180Z,33.41
2022-08-07T14:34:12.355Z,33.26
2022-08-07T14:36:55.938Z,33.13
2022-08-07T14:40:15.987Z,33.00
2022-08-07T14:47:59.052Z,32.44
2022-08-07T14:50:28.820Z,32.31
2022-08-07T14:56:13.049Z,32.12
2022-08-07T14:58:45.472Z,32.05
2022-08-07T15:01:22.609Z,32.02
2022-08-07T15:03:53.264Z,31.98
2022-08-07T15:06:25.185Z,31.95
2022-08-07T15:08:55.663Z,31.91
2022-08-07T15:11:52.834Z,31.88
2022-08-07T15:14:16.642Z,31.82
2022-08-07T15:16:54.883Z,31.74
2022-08-07T15:20:31.585Z,31.66
2022-08-07T15:22:22.118Z,31.62
2022-08-07T15:28:33.092Z,31.56
2022-08-07T15:33:34.059Z,31.40
2022-08-07T15:36:06.800Z,31.29
2022-08-07T15:38:58.711Z,31.19
2022-08-07T15:42:44.358Z,31.08
2022-08-07T15:44:17.449Z,30.93
2022-08-07T15:46:52.764Z,30.80
2022-08-07T15:50:05.022Z,30.65
2022-08-07T15:52:17.184Z,30.49
2022-08-07T15:54:50.956Z,30.34
2022-08-07T15:57:39.296Z,30.22
2022-08-07T16:00:22.728Z,30.05
2022-08-07T16:03:06.955Z,29.87
2022-08-07T16:05:50.146Z,29.71
2022-08-07T16:08:30.357Z,29.58
2022-08-07T16:11:27.139Z,29.43
2022-08-07T16:13:59.977Z,29.32
2022-08-07T16:16:48.223Z,29.24
2022-08-07T16:19:20.482Z,29.16
2022-08-07T16:22:55.132Z,29.09
2022-08-07T16:25:54.324Z,28.97
2022-08-07T16:30:06.257Z,28.89
2022-08-07T16:31:50.860Z,28.78
2022-08-07T16:34:23.875Z,28.64
2022-08-07T16:38:04.242Z,28.49
2022-08-07T16:40:03.232Z,28.29
2022-08-07T16:42:43.100Z,28.10
2022-08-07T16:46:21.157Z,27.96
2022-08-07T16:49:04.012Z,27.84
2022-08-07T16:51:52.069Z,27.69
2022-08-07T16:54:19.424Z,27.57
2022-08-07T16:57:01.806Z,27.46
2022-08-07T16:59:46.611Z,27.35
2022-08-07T17:02:15.488Z,27.26
2022-08-07T17:06:19.759Z,27.14
2022-08-07T17:08:00.250Z,27.06
2022-08-07T17:10:33.722Z,27.00
2022-08-07T17:13:01.793Z,26.94
2022-08-07T17:15:44.368Z,26.87
2022-08-07T17:18:26.430Z,26.77
2022-08-07T17:20:55.123Z,26.70
2022-08-07T17:23:22.914Z,26.65
2022-08-07T17:26:03.757Z,26.62
2022-08-07T17:28:50.064Z,26.55
2022-08-07T17:31:25.073Z,26.46
2022-08-07T17:34:18.080Z,26.36
2022-08-07T17:36:59.837Z,26.27
2022-08-07T17:39:58.834Z,26.21
2022-08-07T17:43:18.158Z,26.16
2022-08-07T17:45:57.137Z,26.11
2022-08-07T17:48:30.990Z,26.05
2022-08-07T17:51:06.183Z,26.01
2022-08-07T17:54:00.934Z,25.96
2022-08-07T17:56:32.140Z,25.90
2022-08-07T17:59:11.159Z,25.83
2022-08-07T18:01:52.022Z,25.75
2022-08-07T18:04:30.988Z,25.67
2022-08-07T18:07:20.624Z,25.61
2022-08-07T18:10:06.078Z,25.53
2022-08-07T18:12:38.841Z,25.45
2022-08-07T18:15:09.704Z,25.38
2022-08-07T18:18:46.011Z,25.30
2022-08-07T18:21:09.846Z,25.23
2022-08-07T18:23:42.969Z,25.16
2022-08-07T18:26:18.907Z,25.11
2022-08-07T18:30:07.971Z,25.06
2022-08-07T18:32:16.750Z,25.02
2022-08-07T18:35:17.557Z,24.99
2022-08-07T18:38:56.300Z,24.97
2022-08-07T18:40:53.487Z,24.93
2022-08-07T18:43:36.843Z,24.90
2022-08-07T18:46:24.855Z,24.86
2022-08-07T18:50:30.516Z,24.78
2022-08-07T18:52:38.202Z,24.71
2022-08-07T18:54:50.845Z,24.65
2022-08-07T18:57:31.445Z,24.59
2022-08-07T19:00:33.289Z,24.53
2022-08-07T19:03:03.765Z,24.46
2022-08-07T19:06:03.426Z,24.41
2022-08-07T19:08:41.853Z,24.36
2022-08-07T19:11:36.378Z,24.30
2022-08-07T19:14:24.015Z,24.24
2022-08-07T19:17:08.206Z,24.20
2022-08-07T19:20:00.776Z,24.17
2022-08-07T19:22:36.199Z,24.16
2022-08-07T19:25:12.684Z,24.15
2022-08-07T19:28:58.267Z,24.14
2022-08-07T19:31:04.084Z,24.13
2022-08-07T19:33:43.053Z,24.12
2022-08-07T19:36:13.210Z,24.10
2022-08-07T19:38:52.952Z,24.09
2022-08-07T19:41:44.398Z,24.05
2022-08-07T19:44:22.056Z,24.02
2022-08-07T19:46:55.757Z,23.95
2022-08-07T19:49:57.642Z,23.90
2022-08-07T19:52:18.427Z,23.84
2022-08-07T19:54:56.564Z,23.78
2022-08-07T19:58:01.452Z,23.69
2022-08-07T20:00:28.337Z,23.53
2022-08-07T20:03:02.035Z,23.42
2022-08-07T20:05:31.529Z,23.34
2022-08-07T20:08:24.953Z,23.26
2022-08-07T20:11:09.517Z,23.20
2022-08-07T20:13:49.785Z,23.13
2022-08-07T20:16:34.674Z,23.06
2022-08-07T20:19:10.145Z,23.01
2022-08-07T20:21:47.160Z,22.96
2022-08-07T20:24:22.134Z,22.90
2022-08-07T20:26:52.338Z,22.84
2022-08-07T20:29:48.703Z,22.75
2022-08-07T20:32:22.218Z,22.61
2022-08-07T20:34:52.145Z,22.46
2022-08-07T20:37:33.709Z,22.35
2022-08-07T20:40:32.518Z,22.27
2022-08-07T20:42:57.986Z,22.19
2022-08-07T20:45:33.573Z,22.15
2022-08-07T20:48:28.395Z,22.12
2022-08-07T20:50:59.624Z,22.08
2022-08-07T20:54:03.086Z,22.07
2022-08-07T20:56:26.213Z,22.05
2022-08-07T20:58:58.640Z,22.04
2022-08-07T21:01:29.564Z,22.02
2022-08-07T21:04:21.715Z,21.98
2022-08-07T21:06:55.392Z,21.94
2022-08-07T21:09:30.565Z,21.90
2022-08-07T21:12:25.914Z,21.87
2022-08-07T21:14:59.028Z,21.84
2022-08-07T21:18:20.243Z,21.80
2022-08-07T21:20:29.811Z,21.77
2022-08-07T21:23:08.763Z,21.75
2022-08-07T21:25:56.118Z,21.71
2022-08-07T21:28:48.679Z,21.69
2022-08-07T21:32:42.874Z,21.66
2022-08-07T21:34:32.718Z,21.64
2022-08-07T21:37:03.932Z,21.61
2022-08-07T21:39:46.706Z,21.57
2022-08-07T21:42:48.200Z,21.50
2022-08-07T21:46:05.086Z,21.45
2022-08-07T21:48:27.662Z,21.43
2022-08-07T21:51:19.851Z,21.42
2022-08-07T21:53:59.546Z,21.36
2022-08-07T21:56:39.783Z,21.32
2022-08-07T22:00:02.929Z,21.27
2022-08-07T22:02:52.395Z,21.21
2022-08-07T22:05:46.048Z,21.18
2022-08-07T22:08:12.531Z,21.16
2022-08-07T22:10:44.501Z,21.16
2022-08-07T22:13:16.003Z,21.16
2022-08-07T22:16:42.549Z,21.13
2022-08-07T22:18:54.432Z,21.08
2022-08-07T22:22:02.019Z,21.05
2022-08-07T22:24:33.021Z,21.03
2022-08-07T22:27:17.945Z,21.03
2022-08-07T22:29:52.286Z,21.01
2022-08-07T22:32:42.316Z,21.00
2022-08-07T22:35:12.399Z,20.97
2022-08-07T22:38:09.298Z,20.93
2022-08-07T22:40:52.880Z,20.89
2022-08-07T22:43:31.661Z,20.87
2022-08-07T22:47:02.696Z,20.85
2022-08-07T22:49:12.680Z,20.86
2022-08-07T22:52:02.688Z,20.85
2022-08-07T22:54:37.519Z,20.83
2022-08-07T22:57:26.009Z,20.80
2022-08-07T23:00:03.512Z,20.77
2022-08-07T23:02:41.437Z,20.77
2022-08-07T23:06:07.182Z,20.76
2022-08-07T23:08:46.123Z,20.74
2022-08-07T23:11:25.591Z,20.73
2022-08-07T23:14:17.466Z,20.73
2022-08-07T23:17:03.767Z,20.73
2022-08-07T23:19:51.834Z,20.71
2022-08-07T23:22:30.215Z,20.67
2022-08-07T23:24:58.653Z,20.64
2022-08-07T23:27:34.026Z,20.62
2022-08-07T23:30:35.977Z,20.62
2022-08-07T23:34:35.742Z,20.60
2022-08-07T23:35:49.002Z,20.58
2022-08-07T23:38:36.291Z,20.56
2022-08-07T23:41:10.437Z,20.52
2022-08-07T23:43:38.808Z,20.50
2022-08-07T23:46:20.062Z,20.49
2022-08-07T23:48:56.149Z,20.48
2022-08-07T23:52:57.921Z,20.47
2022-08-07T23:54:28.614Z,20.46
2022-08-07T23:57:09.047Z,20.45
